Time;durP1;ratioP1;P1;durP2;ratioP2;P2;SDS_P1;SDS_P2;PMS_P1;PMS_P2;Temp;Humidity;BMP_temperature;BMP_pressure;BME280_temperature;BME280_humidity;BME280_pressure;Samples;Min_cycle;Max_cycle;Signal;HPM_P1;HPM_P2
2021/05/27 00:00:30;;;;;;;2.40;1.97;;;23.70;59.10;;;;;;5125634;28;20428;-42
2021/05/27 00:03:03;;;;;;;4.53;1.90;;;23.80;56.50;;;;;;5128616;27;20429;-42
2021/05/27 00:05:33;;;;;;;2.83;1.83;;;23.80;55.30;;;;;;5137280;27;20479;-41
2021/05/27 00:08:04;;;;;;;2.97;1.93;;;23.70;57.70;;;;;;5146020;27;20456;-41
2021/05/27 00:10:36;;;;;;;2.20;1.80;;;23.70;58.20;;;;;;5146206;27;20758;-41
2021/05/27 00:13:06;;;;;;;2.23;2.13;;;23.70;57.80;;;;;;5147202;27;20448;-42
2021/05/27 00:15:41;;;;;;;2.27;2.17;;;23.70;59.40;;;;;;5124202;28;20528;-42
2021/05/27 00:18:13;;;;;;;3.80;2.57;;;23.60;60.40;;;;;;5142672;27;20461;-42
2021/05/27 00:20:44;;;;;;;2.17;1.97;;;23.70;60.00;;;;;;5146730;27;20422;-42
2021/05/27 00:23:14;;;;;;;2.23;2.07;;;23.70;58.30;;;;;;5146757;27;20437;-41
2021/05/27 00:25:45;;;;;;;3.43;2.73;;;23.60;57.20;;;;;;5145762;27;20500;-41
2021/05/27 00:28:15;;;;;;;2.53;2.13;;;23.50;57.00;;;;;;5146424;27;20502;-42
2021/05/27 00:30:46;;;;;;;2.37;2.17;;;23.30;61.20;;;;;;5144949;27;20448;-42
2021/05/27 00:33:17;;;;;;;1.77;1.67;;;23.30;59.80;;;;;;5146730;27;20858;-41
2021/05/27 00:35:48;;;;;;;1.13;1.13;;;23.50;58.10;;;;;;5146675;27;20491;-42
2021/05/27 00:38:18;;;;;;;3.10;2.07;;;23.60;56.30;;;;;;5146363;27;20452;-42
2021/05/27 00:40:48;;;;;;;1.50;1.40;;;23.80;57.80;;;;;;5145500;27;20555;-42
2021/05/27 00:43:19;;;;;;;2.00;1.50;;;23.90;54.30;;;;;;5145485;27;20541;-42
2021/05/27 00:45:49;;;;;;;1.53;1.20;;;24.10;53.80;;;;;;5142857;27;20512;-42
2021/05/27 00:51:09;;;;;;;1.20;1.10;;;23.50;54.50;;;;;;5144465;27;20448;-41
2021/05/27 00:53:40;;;;;;;1.50;1.40;;;23.40;53.40;;;;;;5144747;27;20456;-41
2021/05/27 00:56:11;;;;;;;1.37;1.27;;;23.50;53.40;;;;;;5144914;27;20452;-41
2021/05/27 00:58:44;;;;;;;1.37;1.27;;;23.30;57.30;;;;;;5144866;27;20477;-41
2021/05/27 01:01:15;;;;;;;1.30;1.20;;;23.30;55.00;;;;;;5143770;27;20556;-41
2021/05/27 01:03:46;;;;;;;1.80;1.33;;;23.40;53.20;;;;;;5144783;27;20744;-41
2021/05/27 01:06:17;;;;;;;3.47;1.30;;;23.40;52.40;;;;;;5144700;27;20477;-41
2021/05/27 01:08:47;;;;;;;1.33;1.23;;;23.30;53.50;;;;;;5145364;27;20480;-40
2021/05/27 01:11:18;;;;;;;2.00;1.90;;;23.30;54.00;;;;;;5145210;27;20445;-40
2021/05/27 01:13:48;;;;;;;2.10;1.40;;;23.40;50.90;;;;;;5144967;27;20456;-40
2021/05/27 01:16:21;;;;;;;2.70;1.20;;;23.30;52.10;;;;;;5144329;27;20441;-40
2021/05/27 01:18:56;;;;;;;1.20;1.10;;;23.30;51.10;;;;;;5144856;27;20572;-41
2021/05/27 01:21:29;;;;;;;1.23;1.13;;;23.20;52.60;;;;;;5144804;27;20516;-40
2021/05/27 01:24:01;;;;;;;1.43;1.33;;;23.10;53.30;;;;;;5144261;27;20592;-40
2021/05/27 01:26:32;;;;;;;1.20;1.10;;;23.00;51.70;;;;;;5144902;27;20514;-41
2021/05/27 01:29:02;;;;;;;1.60;1.40;;;23.00;51.20;;;;;;5144210;27;20485;-40
2021/05/27 01:31:34;;;;;;;1.67;1.57;;;22.80;54.10;;;;;;5143528;27;20428;-40
2021/05/27 01:34:07;;;;;;;1.60;1.27;;;22.70;52.60;;;;;;5145379;27;20408;-38
2021/05/27 01:36:37;;;;;;;2.80;1.40;;;22.60;55.40;;;;;;5145152;27;20494;-40
2021/05/27 01:39:12;;;;;;;1.30;1.30;;;22.60;54.80;;;;;;5144596;27;20424;-40
2021/05/27 01:41:43;;;;;;;3.13;1.70;;;22.80;50.80;;;;;;5144337;27;20529;-40
2021/05/27 01:44:13;;;;;;;2.27;2.07;;;22.70;48.80;;;;;;5144072;27;20427;-40
2021/05/27 01:46:44;;;;;;;1.60;1.50;;;22.70;52.00;;;;;;5144112;27;20480;-40
2021/05/27 01:49:15;;;;;;;1.57;1.30;;;22.70;52.50;;;;;;5143636;27;20497;-41
2021/05/27 01:51:50;;;;;;;11.53;10.60;;;22.60;54.00;;;;;;5144969;27;20445;-40
2021/05/27 01:54:21;;;;;;;2.60;2.40;;;22.50;51.40;;;;;;5143922;27;20491;-40
2021/05/27 01:56:52;;;;;;;1.80;1.70;;;22.60;51.20;;;;;;5144748;27;20434;-40
2021/05/27 01:59:22;;;;;;;2.80;2.60;;;22.60;51.60;;;;;;5143783;27;20448;-40
2021/05/27 02:01:54;;;;;;;1.20;1.20;;;22.50;51.90;;;;;;5142350;27;20423;-40
2021/05/27 02:04:24;;;;;;;1.43;1.33;;;22.50;55.10;;;;;;5139834;27;20444;-42
2021/05/27 02:06:55;;;;;;;1.60;1.50;;;22.40;56.10;;;;;;5143462;27;20839;-41
2021/05/27 02:09:26;;;;;;;2.47;1.40;;;22.30;55.80;;;;;;5144024;27;20420;-39
2021/05/27 02:11:57;;;;;;;1.50;1.40;;;22.30;53.10;;;;;;5144098;27;20509;-42
2021/05/27 02:14:27;;;;;;;1.97;1.50;;;22.40;52.40;;;;;;5134760;27;20532;-41
2021/05/27 02:16:58;;;;;;;0.90;0.90;;;22.30;52.50;;;;;;5143471;27;20468;-41
2021/05/27 02:19:29;;;;;;;1.40;1.30;;;22.40;51.20;;;;;;5143611;27;20412;-40
2021/05/27 02:21:59;;;;;;;1.70;1.60;;;22.30;52.00;;;;;;5143264;27;20718;-41
2021/05/27 02:24:31;;;;;;;1.67;1.57;;;22.30;52.40;;;;;;5142909;27;20452;-41
2021/05/27 02:27:01;;;;;;;1.80;1.70;;;22.30;53.90;;;;;;5143325;27;20450;-38
2021/05/27 02:29:32;;;;;;;1.53;1.43;;;22.10;54.10;;;;;;5143060;27;20435;-40
2021/05/27 02:32:02;;;;;;;1.53;1.20;;;22.10;53.70;;;;;;5142563;27;20532;-41
2021/05/27 02:34:33;;;;;;;1.67;1.57;;;22.00;55.20;;;;;;5143130;27;20441;-39
2021/05/27 02:37:03;;;;;;;1.50;1.40;;;21.90;56.20;;;;;;5143806;27;20545;-39
2021/05/27 02:39:35;;;;;;;2.80;1.90;;;21.80;54.50;;;;;;5143119;27;20457;-37
2021/05/27 02:42:06;;;;;;;1.73;1.63;;;21.70;55.60;;;;;;5130729;27;20460;-40
2021/05/27 02:44:37;;;;;;;3.73;3.43;;;21.70;59.00;;;;;;5142899;27;20500;-40
2021/05/27 02:47:07;;;;;;;5.43;4.37;;;21.50;57.50;;;;;;5143233;27;20465;-40
2021/05/27 02:49:46;;;;;;;9.63;9.03;;;21.40;57.90;;;;;;5142527;28;20480;-40
2021/05/27 02:52:18;;;;;;;6.53;5.83;;;21.20;60.90;;;;;;5140730;28;20419;-40
2021/05/27 02:54:50;;;;;;;1.80;1.70;;;21.00;63.70;;;;;;5143758;27;20736;-41
2021/05/27 02:57:21;;;;;;;2.23;2.10;;;21.10;55.60;;;;;;5143389;28;20439;-40
2021/05/27 02:59:51;;;;;;;2.50;2.30;;;21.10;56.70;;;;;;5136820;28;20420;-40
2021/05/27 03:02:21;;;;;;;1.77;1.50;;;21.10;57.50;;;;;;5142273;28;20489;-40
2021/05/27 03:04:52;;;;;;;1.70;1.60;;;21.00;57.70;;;;;;5143994;28;20449;-41
2021/05/27 03:07:28;;;;;;;3.60;3.30;;;20.80;60.00;;;;;;5143221;28;20423;-40
2021/05/27 03:10:37;;;;;;;3.63;3.37;;;20.70;67.10;;;;;;5141407;28;20449;-40
2021/05/27 03:13:10;;;;;;;4.80;4.40;;;20.50;64.70;;;;;;5131768;28;20460;-40
2021/05/27 03:15:40;;;;;;;3.83;2.30;;;20.50;68.30;;;;;;5142294;28;20422;-40
2021/05/27 03:18:20;;;;;;;2.73;2.53;;;20.40;61.00;;;;;;5142710;28;20424;-40
2021/05/27 03:21:08;;;;;;;6.63;4.20;;;20.30;68.90;;;;;;5142205;28;20461;-40
2021/05/27 03:23:55;;;;;;;20.50;17.37;;;20.20;71.30;;;;;;5142720;28;20535;-40
2021/05/27 03:26:27;;;;;;;19.10;17.27;;;20.10;72.30;;;;;;5142856;28;20521;-40
2021/05/27 03:29:03;;;;;;;16.80;15.10;;;19.90;76.00;;;;;;5142607;28;20772;-40
2021/05/27 03:31:36;;;;;;;14.83;13.50;;;19.70;78.80;;;;;;5124687;28;20424;-39
2021/05/27 03:34:06;;;;;;;9.57;8.67;;;19.60;75.90;;;;;;5142464;28;20420;-41
2021/05/27 03:36:37;;;;;;;7.97;7.17;;;19.50;73.50;;;;;;5138947;28;20562;-40
2021/05/27 03:39:08;;;;;;;4.83;4.27;;;19.50;73.40;;;;;;5142679;28;20441;-40
2021/05/27 03:41:39;;;;;;;3.93;3.50;;;19.40;73.00;;;;;;5141479;28;20447;-39
2021/05/27 03:44:11;;;;;;;2.90;2.47;;;19.30;73.70;;;;;;5134045;28;20453;-39
2021/05/27 03:46:44;;;;;;;4.23;2.90;;;19.20;69.80;;;;;;5141692;28;20876;-40
2021/05/27 03:49:16;;;;;;;3.13;2.90;;;19.20;76.60;;;;;;5140505;28;20473;-39
2021/05/27 03:51:47;;;;;;;3.50;2.73;;;19.10;84.00;;;;;;5145175;27;20909;-38
2021/05/27 03:54:17;;;;;;;3.03;2.83;;;19.00;87.90;;;;;;5129935;27;20467;-40
2021/05/27 03:56:49;;;;;;;3.13;2.83;;;18.80;90.80;;;;;;5147003;27;20444;-39
2021/05/27 04:02:06;;;;;;;2.73;2.37;;;18.60;95.10;;;;;;5139391;27;20478;-39
2021/05/27 04:07:32;;;;;;;2.30;2.10;;;18.40;97.00;;;;;;5138501;27;20512;-40
2021/05/27 04:10:03;;;;;;;3.50;2.97;;;18.30;98.30;;;;;;5146496;27;20444;-40
2021/05/27 04:12:46;;;;;;;3.33;2.53;;;18.10;99.40;;;;;;5138095;27;20956;-39
2021/05/27 04:15:21;;;;;;;2.90;2.70;;;18.10;99.90;;;;;;5146431;27;20462;-40
2021/05/27 04:18:08;;;;;;;3.83;3.53;;;18.00;99.90;;;;;;5136434;27;20448;-39
2021/05/27 04:20:45;;;;;;;4.07;3.13;;;18.00;99.90;;;;;;5145603;27;20444;-39
2021/05/27 04:26:07;;;;;;;3.97;3.67;;;17.80;99.90;;;;;;5146011;27;20523;-40
2021/05/27 04:28:39;;;;;;;4.70;3.70;;;17.70;99.90;;;;;;5145200;27;20944;-40
2021/05/27 04:31:11;;;;;;;3.53;3.27;;;17.70;99.90;;;;;;5144884;27;20445;-39
2021/05/27 04:33:52;;;;;;;4.30;3.57;;;17.60;99.90;;;;;;5144714;27;20470;-39
2021/05/27 04:36:26;;;;;;;6.40;4.00;;;17.60;99.90;;;;;;5131969;27;20808;-39
2021/05/27 04:38:59;;;;;;;5.90;3.63;;;17.50;99.90;;;;;;5142170;27;20809;-38
2021/05/27 04:41:30;;;;;;;4.20;3.80;;;17.40;99.90;;;;;;5132416;27;20479;-40
2021/05/27 04:44:01;;;;;;;4.50;4.10;;;17.40;99.90;;;;;;5142832;27;20549;-39
2021/05/27 04:46:32;;;;;;;4.10;3.77;;;17.30;99.90;;;;;;5144650;27;20488;-38
2021/05/27 04:49:04;;;;;;;4.53;4.13;;;17.30;99.90;;;;;;5142682;27;20543;-40
2021/05/27 04:51:34;;;;;;;5.27;4.20;;;17.20;99.90;;;;;;5144725;27;20509;-40
2021/05/27 04:54:05;;;;;;;4.30;3.80;;;17.20;99.90;;;;;;5144070;27;20459;-40
2021/05/27 04:56:35;;;;;;;5.47;4.57;;;17.10;99.90;;;;;;5130701;27;20508;-39
2021/05/27 04:59:07;;;;;;;4.73;4.30;;;17.10;99.90;;;;;;5140812;27;20453;-40
2021/05/27 05:01:38;;;;;;;4.67;3.97;;;17.00;99.90;;;;;;5136274;27;21133;-38
2021/05/27 05:04:08;;;;;;;5.53;4.53;;;16.90;99.90;;;;;;5141792;27;20501;-39
2021/05/27 05:06:39;;;;;;;4.57;4.07;;;16.90;99.90;;;;;;5141311;27;20484;-37
2021/05/27 05:09:09;;;;;;;6.17;4.07;;;16.90;99.90;;;;;;5142596;27;20445;-41
2021/05/27 05:11:40;;;;;;;5.00;4.50;;;16.90;99.90;;;;;;5144700;27;20448;-39
2021/05/27 05:14:12;;;;;;;5.97;5.47;;;16.90;99.90;;;;;;5143567;27;20456;-40
2021/05/27 05:16:42;;;;;;;5.53;5.03;;;16.90;99.90;;;;;;5141232;27;20468;-41
2021/05/27 05:19:12;;;;;;;5.17;4.67;;;17.00;99.90;;;;;;5144374;27;20425;-41
2021/05/27 05:21:43;;;;;;;5.33;4.93;;;17.00;99.90;;;;;;5138778;27;20785;-40
2021/05/27 05:24:13;;;;;;;5.40;4.87;;;17.10;99.90;;;;;;5144206;27;20497;-40
2021/05/27 05:26:44;;;;;;;4.97;4.60;;;17.10;99.90;;;;;;5145004;27;20480;-40
2021/05/27 05:29:15;;;;;;;4.90;4.53;;;17.00;99.90;;;;;;5144397;27;20552;-39
2021/05/27 05:31:46;;;;;;;4.90;4.00;;;17.00;99.90;;;;;;5144669;27;20429;-40
2021/05/27 05:34:17;;;;;;;4.80;3.97;;;17.00;99.90;;;;;;5143985;27;20436;-40
2021/05/27 05:36:47;;;;;;;4.30;4.00;;;16.90;99.90;;;;;;5144169;27;20463;-40
2021/05/27 05:39:17;;;;;;;4.03;3.70;;;16.90;99.90;;;;;;5144133;27;20445;-40
2021/05/27 05:41:48;;;;;;;4.80;4.40;;;16.80;99.90;;;;;;5145207;27;20445;-40
2021/05/27 05:44:19;;;;;;;3.80;3.50;;;16.80;99.90;;;;;;5143893;27;20501;-39
2021/05/27 05:46:50;;;;;;;6.40;4.30;;;16.80;99.90;;;;;;5144444;27;20496;-40
2021/05/27 05:49:22;;;;;;;4.07;3.63;;;16.80;99.90;;;;;;5145217;27;20488;-40
2021/05/27 05:51:53;;;;;;;3.87;3.57;;;16.80;99.90;;;;;;5144742;27;20457;-39
2021/05/27 05:54:24;;;;;;;4.03;3.63;;;16.70;99.90;;;;;;5144224;27;20529;-39
2021/05/27 05:56:54;;;;;;;5.80;3.80;;;16.80;99.90;;;;;;5144947;27;20452;-40
2021/05/27 05:59:26;;;;;;;3.50;3.20;;;16.80;99.90;;;;;;5144223;27;20420;-38
2021/05/27 06:01:56;;;;;;;4.23;3.73;;;16.80;99.90;;;;;;5144719;27;20448;-39
2021/05/27 06:04:27;;;;;;;5.80;3.83;;;16.70;99.90;;;;;;5144407;27;20445;-39
2021/05/27 06:06:58;;;;;;;3.60;3.30;;;16.70;99.90;;;;;;5144003;27;20480;-40
2021/05/27 06:09:29;;;;;;;3.53;3.23;;;16.60;99.90;;;;;;5131618;27;20449;-40
2021/05/27 06:11:59;;;;;;;3.27;3.07;;;16.50;99.90;;;;;;5138845;27;20491;-40
2021/05/27 06:14:33;;;;;;;2.70;2.50;;;16.50;99.90;;;;;;5142639;27;20473;-40
2021/05/27 06:17:03;;;;;;;2.50;2.30;;;16.50;99.90;;;;;;5144470;27;20444;-40
2021/05/27 06:19:34;;;;;;;2.00;1.90;;;16.60;99.90;;;;;;5143838;27;20441;-40
2021/05/27 06:22:06;;;;;;;2.07;1.97;;;16.60;99.90;;;;;;5144213;27;20464;-39
2021/05/27 06:24:37;;;;;;;2.50;1.77;;;16.60;99.90;;;;;;5144224;27;20460;-40
2021/05/27 06:27:07;;;;;;;2.20;2.03;;;16.60;99.90;;;;;;5144215;27;20480;-39
2021/05/27 06:29:39;;;;;;;1.50;1.40;;;16.60;99.50;;;;;;5142985;27;20441;-39
2021/05/27 06:32:09;;;;;;;2.63;2.43;;;16.50;98.60;;;;;;5144279;27;20433;-40
2021/05/27 06:34:40;;;;;;;2.57;1.47;;;16.50;98.40;;;;;;5143983;27;20464;-40
2021/05/27 06:37:10;;;;;;;2.10;1.90;;;16.50;98.50;;;;;;5142952;27;20449;-41
2021/05/27 06:39:41;;;;;;;1.60;1.50;;;16.40;98.20;;;;;;5143867;27;20453;-40
2021/05/27 06:42:13;;;;;;;1.90;1.70;;;16.30;98.00;;;;;;5143762;27;20463;-40
2021/05/27 06:44:49;;;;;;;2.13;1.93;;;16.30;98.40;;;;;;5143440;27;20444;-39
2021/05/27 06:47:20;;;;;;;1.83;1.73;;;16.30;97.80;;;;;;5143872;27;20479;-41
2021/05/27 06:49:51;;;;;;;1.60;1.50;;;16.20;98.20;;;;;;5133750;27;20496;-41
2021/05/27 06:52:22;;;;;;;3.00;1.60;;;16.20;98.20;;;;;;5143901;28;20560;-41
2021/05/27 06:54:55;;;;;;;1.50;1.40;;;16.20;97.60;;;;;;5143879;28;20453;-41
2021/05/27 06:57:26;;;;;;;1.60;1.40;;;16.10;97.60;;;;;;5142751;28;20440;-41
2021/05/27 06:59:58;;;;;;;1.50;1.40;;;16.00;97.40;;;;;;5138616;28;20494;-41
2021/05/27 07:02:30;;;;;;;1.83;1.50;;;16.00;97.70;;;;;;5138403;28;20437;-41
2021/05/27 07:05:01;;;;;;;1.63;1.20;;;15.90;97.90;;;;;;5143314;28;20424;-41
2021/05/27 07:07:31;;;;;;;1.53;1.43;;;15.90;97.90;;;;;;5142318;28;20477;-41
2021/05/27 07:10:03;;;;;;;1.57;1.47;;;15.80;98.10;;;;;;5143227;28;20470;-41
2021/05/27 07:12:33;;;;;;;2.70;1.40;;;15.80;98.40;;;;;;5143593;28;20444;-41
2021/05/27 07:15:06;;;;;;;5.27;1.50;;;15.70;98.30;;;;;;5135530;28;20473;-41
2021/05/27 07:17:36;;;;;;;2.57;1.40;;;15.70;98.00;;;;;;5143717;28;20433;-41
2021/05/27 07:20:09;;;;;;;1.40;1.20;;;15.60;98.20;;;;;;5143193;27;20556;-41
2021/05/27 07:22:39;;;;;;;3.10;1.57;;;15.60;98.80;;;;;;5144004;28;20567;-40
2021/05/27 07:25:11;;;;;;;1.83;1.40;;;15.60;99.30;;;;;;5145383;27;20609;-40
2021/05/27 07:27:43;;;;;;;3.53;1.67;;;15.50;99.00;;;;;;5147738;27;20504;-41
2021/05/27 07:30:15;;;;;;;1.30;1.20;;;15.50;99.50;;;;;;5147016;27;20456;-41
2021/05/27 07:32:46;;;;;;;1.50;1.40;;;15.40;99.20;;;;;;5147563;27;20447;-41
2021/05/27 07:35:16;;;;;;;1.53;1.10;;;15.40;99.50;;;;;;5146742;27;20510;-39
2021/05/27 07:37:47;;;;;;;2.10;1.50;;;15.30;99.50;;;;;;5146389;27;20501;-40
2021/05/27 07:40:18;;;;;;;2.03;1.53;;;15.20;99.90;;;;;;5142893;27;20450;-41
2021/05/27 07:42:48;;;;;;;1.57;1.20;;;15.20;99.50;;;;;;5145367;27;20445;-41
2021/05/27 07:45:20;;;;;;;1.50;1.20;;;15.10;99.90;;;;;;5144040;27;20437;-41
2021/05/27 07:47:51;;;;;;;1.40;1.30;;;15.00;99.90;;;;;;5146956;27;20891;-41
2021/05/27 07:50:22;;;;;;;2.10;1.10;;;15.00;99.90;;;;;;5146528;27;20480;-41
2021/05/27 07:52:55;;;;;;;2.70;1.00;;;15.00;99.90;;;;;;5147265;27;20516;-41
2021/05/27 07:55:26;;;;;;;3.10;1.20;;;14.90;99.90;;;;;;5146997;27;20452;-41
2021/05/27 07:57:57;;;;;;;3.17;1.30;;;14.90;99.90;;;;;;5147343;27;20441;-40
2021/05/27 08:00:28;;;;;;;1.40;1.30;;;14.90;99.90;;;;;;5139795;27;20444;-41
2021/05/27 08:02:59;;;;;;;1.33;1.17;;;14.80;99.90;;;;;;5146515;27;20461;-39
2021/05/27 08:05:29;;;;;;;2.50;1.30;;;14.70;99.90;;;;;;5146533;27;20784;-40
2021/05/27 08:08:00;;;;;;;1.37;1.07;;;14.70;99.90;;;;;;5145722;27;20552;-40
2021/05/27 08:10:34;;;;;;;2.13;1.50;;;14.70;99.90;;;;;;5146908;27;20451;-40
2021/05/27 08:13:05;;;;;;;2.17;1.17;;;14.60;99.90;;;;;;5147182;27;20449;-41
2021/05/27 08:15:37;;;;;;;1.40;1.13;;;14.60;99.90;;;;;;5140301;27;20465;-40
2021/05/27 08:18:07;;;;;;;1.27;1.10;;;14.60;99.90;;;;;;5146890;27;20452;-40
2021/05/27 08:20:38;;;;;;;1.87;1.23;;;14.50;99.90;;;;;;5144369;27;20457;-40
2021/05/27 08:23:08;;;;;;;2.50;1.07;;;14.40;99.90;;;;;;5146736;27;20469;-40
2021/05/27 08:25:46;;;;;;;1.50;1.20;;;14.40;99.90;;;;;;5146307;27;20453;-40
2021/05/27 08:28:17;;;;;;;1.40;1.30;;;14.40;99.90;;;;;;5146680;27;20494;-41
2021/05/27 08:30:48;;;;;;;1.47;1.37;;;14.30;99.90;;;;;;5141886;27;20482;-41
2021/05/27 08:33:19;;;;;;;1.50;1.33;;;14.30;99.90;;;;;;5146217;27;20452;-41
2021/05/27 08:35:49;;;;;;;1.87;1.13;;;14.20;99.90;;;;;;5145030;27;20460;-41
2021/05/27 08:38:20;;;;;;;1.70;1.57;;;14.20;99.90;;;;;;5145397;27;20445;-41
2021/05/27 08:40:52;;;;;;;2.53;1.30;;;14.10;99.90;;;;;;5146569;27;20472;-41
2021/05/27 08:43:23;;;;;;;1.60;1.33;;;14.10;99.90;;;;;;5146954;27;20472;-41
2021/05/27 08:45:55;;;;;;;1.73;1.63;;;14.00;99.90;;;;;;5144178;27;20480;-41
2021/05/27 08:48:25;;;;;;;2.33;1.60;;;14.00;99.90;;;;;;5146163;27;20506;-41
2021/05/27 08:50:56;;;;;;;1.63;1.53;;;13.90;99.90;;;;;;5142511;27;20499;-41
2021/05/27 08:53:27;;;;;;;1.40;1.30;;;14.00;99.90;;;;;;5145856;27;20456;-41
2021/05/27 08:55:57;;;;;;;2.40;1.43;;;14.00;99.90;;;;;;5145997;27;20932;-41
2021/05/27 08:58:28;;;;;;;2.60;1.27;;;13.90;99.90;;;;;;5146188;27;20472;-41
2021/05/27 09:00:59;;;;;;;1.40;1.30;;;13.90;99.90;;;;;;5145022;27;20470;-40
2021/05/27 09:03:41;;;;;;;2.23;1.27;;;13.80;99.90;;;;;;5145896;27;20448;-40
2021/05/27 09:06:13;;;;;;;1.67;1.40;;;13.80;99.90;;;;;;5144812;27;20445;-40
2021/05/27 09:08:44;;;;;;;1.07;1.00;;;13.70;99.90;;;;;;5144520;27;20511;-41
2021/05/27 09:11:15;;;;;;;1.03;1.03;;;13.60;99.90;;;;;;5145572;27;20441;-39
2021/05/27 09:13:57;;;;;;;6.10;1.53;;;13.60;99.90;;;;;;5146298;27;20465;-40
2021/05/27 09:16:29;;;;;;;1.70;1.20;;;13.60;99.90;;;;;;5140892;27;20825;-41
2021/05/27 09:19:15;;;;;;;1.63;1.53;;;13.60;99.90;;;;;;5145126;27;20518;-40
2021/05/27 09:21:45;;;;;;;1.27;1.17;;;13.50;99.90;;;;;;5138078;27;20445;-40
2021/05/27 09:24:16;;;;;;;1.83;1.53;;;13.50;99.90;;;;;;5144943;27;20445;-40
2021/05/27 09:26:54;;;;;;;2.10;1.10;;;13.50;99.90;;;;;;5144789;27;20494;-41
2021/05/27 09:29:25;;;;;;;1.57;1.47;;;13.50;99.90;;;;;;5145030;27;20433;-40
2021/05/27 09:32:01;;;;;;;2.17;1.43;;;13.40;99.90;;;;;;5145783;27;20449;-40
2021/05/27 09:34:44;;;;;;;1.00;0.90;;;13.50;99.90;;;;;;5142305;27;20472;-41
2021/05/27 09:37:22;;;;;;;1.10;1.00;;;13.40;99.90;;;;;;5132045;27;20445;-40
2021/05/27 09:39:52;;;;;;;3.05;1.10;;;13.40;99.90;;;;;;5144802;27;20520;-41
2021/05/27 09:42:23;;;;;;;1.60;1.50;;;13.30;99.90;;;;;;5145833;27;20221;-41
2021/05/27 09:44:54;;;;;;;1.70;1.40;;;13.30;99.90;;;;;;5144488;27;20441;-41
2021/05/27 09:47:35;;;;;;;1.20;1.10;;;13.30;99.90;;;;;;5144387;27;20223;-39
2021/05/27 09:50:08;;;;;;;1.00;1.00;;;13.20;99.90;;;;;;5144365;27;20222;-40
2021/05/27 09:52:40;;;;;;;1.73;1.13;;;13.20;99.90;;;;;;5145308;27;20464;-40
2021/05/27 09:55:12;;;;;;;1.80;0.90;;;13.20;99.90;;;;;;5145030;27;20502;-39
2021/05/27 09:57:44;;;;;;;1.47;1.00;;;13.10;99.90;;;;;;5145091;27;20483;-40
2021/05/27 10:00:30;;;;;;;1.13;1.03;;;13.10;99.90;;;;;;5143990;27;20477;-41
2021/05/27 10:03:23;;;;;;;2.43;1.00;;;13.10;99.90;;;;;;5145331;27;20452;-41
2021/05/27 10:05:54;;;;;;;1.60;1.27;;;13.10;99.90;;;;;;5144282;27;20908;-41
2021/05/27 10:08:24;;;;;;;3.53;0.70;;;13.10;99.90;;;;;;5144809;27;20491;-41
2021/05/27 10:11:09;;;;;;;0.97;0.97;;;13.20;99.90;;;;;;5145300;27;20437;-41
2021/05/27 10:13:41;;;;;;;1.67;1.00;;;13.30;99.90;;;;;;5145030;27;20460;-41
2021/05/27 10:16:14;;;;;;;1.97;1.13;;;13.30;99.90;;;;;;5141881;27;20231;-41
2021/05/27 10:18:45;;;;;;;1.47;1.37;;;13.30;99.90;;;;;;5144514;27;20453;-41
2021/05/27 10:21:16;;;;;;;1.10;1.00;;;13.40;99.90;;;;;;5143845;27;20452;-41
2021/05/27 10:23:50;;;;;;;1.33;1.10;;;13.50;99.90;;;;;;5144980;27;20512;-41
2021/05/27 10:26:22;;;;;;;2.70;1.23;;;13.50;99.90;;;;;;5144977;27;20437;-41
2021/05/27 10:29:12;;;;;;;1.40;0.80;;;13.60;99.90;;;;;;5143754;27;20579;-41
2021/05/27 10:31:47;;;;;;;0.80;0.80;;;13.60;99.90;;;;;;5143972;27;20445;-41
2021/05/27 10:34:46;;;;;;;1.40;0.90;;;13.70;99.90;;;;;;5144182;27;20467;-41
2021/05/27 10:37:36;;;;;;;1.13;1.03;;;13.70;99.90;;;;;;5139405;27;20490;-40
2021/05/27 10:40:37;;;;;;;1.17;1.00;;;13.70;99.90;;;;;;5141008;27;20806;-40
2021/05/27 10:43:13;;;;;;;0.77;0.77;;;13.70;99.90;;;;;;5132450;27;20449;-40
2021/05/27 10:46:08;;;;;;;0.83;0.83;;;13.80;99.90;;;;;;5143670;27;20510;-41
2021/05/27 10:48:45;;;;;;;1.27;1.00;;;13.80;99.90;;;;;;5126020;27;20480;-42
2021/05/27 10:51:26;;;;;;;1.00;1.00;;;13.80;99.90;;;;;;5144417;27;20548;-38
2021/05/27 10:53:58;;;;;;;0.70;0.70;;;13.80;99.90;;;;;;5144749;28;20449;-39
2021/05/27 10:56:44;;;;;;;0.93;0.87;;;13.80;99.90;;;;;;5144476;28;20480;-41
2021/05/27 10:59:15;;;;;;;3.03;1.10;;;13.80;99.90;;;;;;5143965;27;20448;-41
2021/05/27 11:02:00;;;;;;;1.30;0.87;;;13.80;99.90;;;;;;5147992;27;20545;-40
2021/05/27 11:04:42;;;;;;;0.90;0.90;;;13.80;99.90;;;;;;5148832;27;20448;-41
2021/05/27 11:07:22;;;;;;;1.10;1.00;;;13.80;99.90;;;;;;5148115;27;20441;-41
2021/05/27 11:09:57;;;;;;;1.80;1.00;;;13.80;99.90;;;;;;5147757;27;20445;-40
2021/05/27 11:12:35;;;;;;;1.17;1.10;;;13.70;99.90;;;;;;5148972;27;20432;-41
2021/05/27 11:15:16;;;;;;;2.00;0.97;;;13.70;99.90;;;;;;5146132;27;20441;-41
2021/05/27 11:18:07;;;;;;;0.90;0.90;;;13.60;99.90;;;;;;5148470;27;20452;-41
2021/05/27 11:20:38;;;;;;;0.97;0.97;;;13.60;99.90;;;;;;5146748;27;20449;-40
2021/05/27 11:23:23;;;;;;;1.30;1.20;;;13.50;99.90;;;;;;5148238;27;20441;-40
2021/05/27 11:26:13;;;;;;;1.30;0.97;;;13.40;99.90;;;;;;5147828;27;20445;-40
2021/05/27 11:28:44;;;;;;;1.20;1.00;;;13.40;99.90;;;;;;5131584;27;20480;-41
2021/05/27 11:31:47;;;;;;;1.80;1.43;;;13.20;99.90;;;;;;5147144;27;20477;-41
2021/05/27 11:34:18;;;;;;;1.50;1.37;;;13.00;99.90;;;;;;5131978;27;20537;-39
2021/05/27 11:37:00;;;;;;;1.20;1.10;;;12.80;99.90;;;;;;5147637;27;20448;-39
2021/05/27 11:39:31;;;;;;;1.63;1.53;;;12.70;99.90;;;;;;5147393;27;20444;-39
2021/05/27 11:42:09;;;;;;;1.60;1.50;;;12.50;99.90;;;;;;5147498;27;20440;-39
2021/05/27 11:44:55;;;;;;;1.90;1.80;;;12.40;99.90;;;;;;5146680;27;20199;-40
2021/05/27 11:47:25;;;;;;;1.90;1.80;;;12.20;99.90;;;;;;5147485;27;20199;-40
2021/05/27 11:50:04;;;;;;;2.53;1.67;;;12.10;99.90;;;;;;5146843;27;20511;-41
2021/05/27 11:52:35;;;;;;;2.45;1.90;;;11.90;99.90;;;;;;5147390;27;20199;-41
2021/05/27 11:55:12;;;;;;;4.03;1.77;;;11.90;99.90;;;;;;5148171;27;20256;-41
2021/05/27 11:57:44;;;;;;;2.42;1.73;;;11.80;99.90;;;;;;5148452;27;20191;-41
2021/05/27 12:00:17;;;;;;;1.67;1.58;;;11.70;99.90;;;;;;5146316;27;20234;-41
2021/05/27 12:02:49;;;;;;;3.25;2.15;;;11.60;99.90;;;;;;5147211;27;20227;-41
2021/05/27 12:05:24;;;;;;;3.30;1.70;;;11.50;99.90;;;;;;5146922;27;20248;-41
2021/05/27 12:08:02;;;;;;;2.58;1.70;;;11.60;99.90;;;;;;5147810;27;20245;-41
2021/05/27 12:10:36;;;;;;;1.70;1.60;;;11.60;99.90;;;;;;5145925;27;20199;-41
2021/05/27 12:13:18;;;;;;;3.90;1.95;;;11.50;99.90;;;;;;5143998;27;20183;-41
2021/05/27 12:15:49;;;;;;;1.70;1.60;;;11.50;99.90;;;;;;5146654;27;20227;-41
2021/05/27 12:18:20;;;;;;;2.10;2.00;;;11.40;99.90;;;;;;5147540;27;20203;-40
2021/05/27 12:20:51;;;;;;;2.08;1.75;;;11.30;99.90;;;;;;5146215;27;20199;-41
2021/05/27 12:23:22;;;;;;;2.47;2.08;;;11.30;99.90;;;;;;5143490;27;20302;-41
2021/05/27 12:25:54;;;;;;;2.95;2.20;;;11.30;99.90;;;;;;5147238;27;20222;-41
2021/05/27 12:28:26;;;;;;;2.05;1.75;;;11.30;99.90;;;;;;5148040;27;20263;-41
2021/05/27 12:30:58;;;;;;;4.72;2.00;;;11.30;99.90;;;;;;5145539;27;20297;-41
2021/05/27 12:33:29;;;;;;;2.63;2.30;;;11.30;99.90;;;;;;5147126;27;20203;-41
2021/05/27 12:36:09;;;;;;;5.15;2.30;;;11.30;99.90;;;;;;5146509;27;20739;-41
2021/05/27 12:38:46;;;;;;;2.47;2.20;;;11.30;99.90;;;;;;5146532;27;20237;-41
2021/05/27 12:41:19;;;;;;;2.78;2.58;;;11.40;99.90;;;;;;5140274;27;20233;-40
2021/05/27 12:43:51;;;;;;;2.50;1.98;;;11.40;99.90;;;;;;5147716;27;20192;-41
2021/05/27 12:46:33;;;;;;;3.25;2.78;;;11.40;99.90;;;;;;5146857;27;20243;-40
2021/05/27 12:49:04;;;;;;;3.03;2.35;;;11.30;99.90;;;;;;5145585;27;20234;-41
2021/05/27 12:51:54;;;;;;;2.00;1.90;;;11.40;99.90;;;;;;5146432;27;20223;-41
2021/05/27 12:54:26;;;;;;;2.67;2.38;;;11.40;99.90;;;;;;5146359;27;20203;-41
2021/05/27 12:57:06;;;;;;;2.40;2.20;;;11.40;99.90;;;;;;5146181;27;20195;-41
2021/05/27 12:59:38;;;;;;;3.38;2.63;;;11.40;99.90;;;;;;5144612;27;20199;-41
2021/05/27 13:02:10;;;;;;;1.98;1.85;;;11.40;99.90;;;;;;5146529;27;20625;-41
2021/05/27 13:04:41;;;;;;;2.33;1.90;;;11.40;99.90;;;;;;5145445;27;20214;-41
2021/05/27 13:07:13;;;;;;;3.53;2.60;;;11.40;99.90;;;;;;5135396;27;20225;-41
2021/05/27 13:09:49;;;;;;;2.97;2.10;;;11.40;99.90;;;;;;5145049;27;20223;-41
2021/05/27 13:12:21;;;;;;;3.15;1.50;;;11.50;99.90;;;;;;5144655;27;20954;-41
2021/05/27 13:15:08;;;;;;;2.20;1.90;;;11.50;99.90;;;;;;5143558;27;20568;-41
2021/05/27 13:17:39;;;;;;;3.25;2.42;;;11.50;99.90;;;;;;5146735;27;20218;-39
2021/05/27 13:20:12;;;;;;;2.65;1.77;;;11.50;99.90;;;;;;5139961;27;20214;-40
2021/05/27 13:22:42;;;;;;;2.72;2.53;;;11.50;99.90;;;;;;5141657;27;20206;-39
2021/05/27 13:25:14;;;;;;;1.90;1.80;;;11.60;99.90;;;;;;5145644;27;20204;-40
2021/05/27 13:27:49;;;;;;;1.63;1.53;;;11.60;99.90;;;;;;5146176;27;20214;-39